sensor_id;sensor_type;location;lat;lon;timestamp;pressure;altitude;pressure_sealevel;temperature;humidity
84841;BME280;75088;53.114;18.040;2024-02-15T00:00:27;101586.33;;;6.22;82.14
84841;BME280;75088;53.114;18.040;2024-02-15T00:01:54;101584.39;;;6.22;82.26
84841;BME280;75088;53.114;18.040;2024-02-15T00:03:01;101587.40;;;6.23;82.38
84841;BME280;75088;53.114;18.040;2024-02-15T00:04:08;101583.16;;;6.23;82.27
84841;BME280;75088;53.114;18.040;2024-02-15T00:05:16;101587.08;;;6.24;82.46
84841;BME280;75088;53.114;18.040;2024-02-15T00:06:23;101588.49;;;6.24;82.72
84841;BME280;75088;53.114;18.040;2024-02-15T00:07:30;101585.50;;;6.25;82.66
84841;BME280;75088;53.114;18.040;2024-02-15T00:08:37;101587.28;;;6.25;82.56
84841;BME280;75088;53.114;18.040;2024-02-15T00:09:44;101584.48;;;6.26;82.58
84841;BME280;75088;53.114;18.040;2024-02-15T00:10:51;101586.61;;;6.27;82.81
84841;BME280;75088;53.114;18.040;2024-02-15T00:11:59;101582.20;;;6.27;82.74
84841;BME280;75088;53.114;18.040;2024-02-15T00:13:06;101582.40;;;6.28;82.68
84841;BME280;75088;53.114;18.040;2024-02-15T00:14:13;101577.98;;;6.29;82.34
84841;BME280;75088;53.114;18.040;2024-02-15T00:15:21;101579.41;;;6.29;82.59
84841;BME280;75088;53.114;18.040;2024-02-15T00:16:28;101579.95;;;6.30;82.56
84841;BME280;75088;53.114;18.040;2024-02-15T00:17:35;101576.79;;;6.31;83.19
84841;BME280;75088;53.114;18.040;2024-02-15T00:18:42;101578.73;;;6.31;83.00
84841;BME280;75088;53.114;18.040;2024-02-15T00:19:50;101575.55;;;6.31;82.77
84841;BME280;75088;53.114;18.040;2024-02-15T00:20:57;101576.63;;;6.32;82.98
84841;BME280;75088;53.114;18.040;2024-02-15T00:22:06;101576.81;;;6.33;82.65
84841;BME280;75088;53.114;18.040;2024-02-15T00:23:13;101574.36;;;6.33;82.74
84841;BME280;75088;53.114;18.040;2024-02-15T00:24:22;101576.30;;;6.33;83.02
84841;BME280;75088;53.114;18.040;2024-02-15T00:25:29;101574.71;;;6.33;82.69
84841;BME280;75088;53.114;18.040;2024-02-15T00:26:37;101574.20;;;6.34;83.17
84841;BME280;75088;53.114;18.040;2024-02-15T00:27:44;101575.62;;;6.34;83.10
84841;BME280;75088;53.114;18.040;2024-02-15T00:28:51;101572.27;;;6.34;83.26
84841;BME280;75088;53.114;18.040;2024-02-15T00:29:58;101572.80;;;6.35;83.23
84841;BME280;75088;53.114;18.040;2024-02-15T00:31:05;101569.80;;;6.34;83.52
84841;BME280;75088;53.114;18.040;2024-02-15T00:32:13;101569.80;;;6.35;83.12
84841;BME280;75088;53.114;18.040;2024-02-15T00:33:20;101571.56;;;6.35;83.35
84841;BME280;75088;53.114;18.040;2024-02-15T00:34:27;101571.23;;;6.35;83.45
84841;BME280;75088;53.114;18.040;2024-02-15T00:35:34;101572.11;;;6.35;83.18
84841;BME280;75088;53.114;18.040;2024-02-15T00:36:44;101570.73;;;6.36;83.25
84841;BME280;75088;53.114;18.040;2024-02-15T00:37:52;101571.45;;;6.37;83.37
84841;BME280;75088;53.114;18.040;2024-02-15T00:38:59;101566.67;;;6.37;83.65
84841;BME280;75088;53.114;18.040;2024-02-15T00:40:08;101568.96;;;6.37;83.64
84841;BME280;75088;53.114;18.040;2024-02-15T00:41:15;101567.37;;;6.36;83.65
84841;BME280;75088;53.114;18.040;2024-02-15T00:42:22;101570.02;;;6.36;83.27
84841;BME280;75088;53.114;18.040;2024-02-15T00:43:29;101572.15;;;6.37;83.58
84841;BME280;75088;53.114;18.040;2024-02-15T00:44:41;101568.44;;;6.37;83.98
84841;BME280;75088;53.114;18.040;2024-02-15T00:45:48;101573.03;;;6.37;83.76
84841;BME280;75088;53.114;18.040;2024-02-15T00:46:55;101570.55;;;6.37;83.87
84841;BME280;75088;53.114;18.040;2024-02-15T00:48:03;101567.56;;;6.37;83.82
84841;BME280;75088;53.114;18.040;2024-02-15T00:49:12;101571.63;;;6.37;83.68
84841;BME280;75088;53.114;18.040;2024-02-15T00:50:19;101571.29;;;6.38;84.13
84841;BME280;75088;53.114;18.040;2024-02-15T00:51:26;101572.17;;;6.38;84.01
84841;BME280;75088;53.114;18.040;2024-02-15T00:52:33;101568.66;;;6.39;84.11
84841;BME280;75088;53.114;18.040;2024-02-15T00:53:41;101572.19;;;6.39;83.89
84841;BME280;75088;53.114;18.040;2024-02-15T00:54:48;101570.60;;;6.39;83.90
84841;BME280;75088;53.114;18.040;2024-02-15T00:55:56;101575.91;;;6.40;83.96
84841;BME280;75088;53.114;18.040;2024-02-15T00:57:04;101572.38;;;6.40;83.66
84841;BME280;75088;53.114;18.040;2024-02-15T00:58:11;101567.96;;;6.39;83.72
84841;BME280;75088;53.114;18.040;2024-02-15T00:59:18;101571.85;;;6.39;84.00
84841;BME280;75088;53.114;18.040;2024-02-15T01:00:25;101572.92;;;6.40;84.08
84841;BME280;75088;53.114;18.040;2024-02-15T01:01:32;101573.09;;;6.40;83.95
84841;BME280;75088;53.114;18.040;2024-02-15T01:02:42;101569.20;;;6.40;84.18
84841;BME280;75088;53.114;18.040;2024-02-15T01:03:49;101568.52;;;6.40;84.08
84841;BME280;75088;53.114;18.040;2024-02-15T01:04:56;101570.12;;;6.41;84.16
84841;BME280;75088;53.114;18.040;2024-02-15T01:06:05;101568.54;;;6.41;84.13
84841;BME280;75088;53.114;18.040;2024-02-15T01:07:12;101572.98;;;6.42;84.19
84841;BME280;75088;53.114;18.040;2024-02-15T01:08:20;101569.97;;;6.43;83.93
84841;BME280;75088;53.114;18.040;2024-02-15T01:09:27;101567.86;;;6.43;83.49
84841;BME280;75088;53.114;18.040;2024-02-15T01:10:34;101573.16;;;6.43;83.86
84841;BME280;75088;53.114;18.040;2024-02-15T01:11:42;101568.58;;;6.43;83.96
84841;BME280;75088;53.114;18.040;2024-02-15T01:12:49;101564.71;;;6.44;84.48
84841;BME280;75088;53.114;18.040;2024-02-15T01:13:56;101569.15;;;6.46;83.98
84841;BME280;75088;53.114;18.040;2024-02-15T01:15:04;101566.31;;;6.45;83.80
84841;BME280;75088;53.114;18.040;2024-02-15T01:16:12;101568.27;;;6.46;84.21
84841;BME280;75088;53.114;18.040;2024-02-15T01:17:20;101570.39;;;6.46;84.04
84841;BME280;75088;53.114;18.040;2024-02-15T01:18:27;101571.27;;;6.46;84.37
84841;BME280;75088;53.114;18.040;2024-02-15T01:19:35;101567.92;;;6.47;84.49
84841;BME280;75088;53.114;18.040;2024-02-15T01:20:43;101569.17;;;6.47;84.41
84841;BME280;75088;53.114;18.040;2024-02-15T01:21:50;101566.19;;;6.48;84.49
84841;BME280;75088;53.114;18.040;2024-02-15T01:22:59;101566.73;;;6.48;84.36
84841;BME280;75088;53.114;18.040;2024-02-15T01:24:07;101566.03;;;6.49;84.25
84841;BME280;75088;53.114;18.040;2024-02-15T01:25:14;101561.81;;;6.49;84.33
84841;BME280;75088;53.114;18.040;2024-02-15T01:26:23;101564.81;;;6.49;84.42
84841;BME280;75088;53.114;18.040;2024-02-15T01:27:30;101564.64;;;6.50;84.29
84841;BME280;75088;53.114;18.040;2024-02-15T01:28:37;101563.92;;;6.50;84.30
84841;BME280;75088;53.114;18.040;2024-02-15T01:29:44;101565.36;;;6.50;84.17
84841;BME280;75088;53.114;18.040;2024-02-15T01:30:51;101563.24;;;6.50;84.39
84841;BME280;75088;53.114;18.040;2024-02-15T01:32:00;101565.20;;;6.51;84.37
84841;BME280;75088;53.114;18.040;2024-02-15T01:33:07;101562.90;;;6.51;84.47
84841;BME280;75088;53.114;18.040;2024-02-15T01:34:14;101559.89;;;6.51;84.32
84841;BME280;75088;53.114;18.040;2024-02-15T01:35:21;101563.60;;;6.51;84.27
84841;BME280;75088;53.114;18.040;2024-02-15T01:36:28;101560.96;;;6.51;84.04
84841;BME280;75088;53.114;18.040;2024-02-15T01:37:35;101560.09;;;6.52;84.01
84841;BME280;75088;53.114;18.040;2024-02-15T01:38:43;101564.52;;;6.52;84.06
84841;BME280;75088;53.114;18.040;2024-02-15T01:39:51;101560.27;;;6.52;84.34
84841;BME280;75088;53.114;18.040;2024-02-15T01:40:58;101561.17;;;6.53;84.10
84841;BME280;75088;53.114;18.040;2024-02-15T01:42:06;101558.00;;;6.53;84.39
84841;BME280;75088;53.114;18.040;2024-02-15T01:43:13;101553.95;;;6.54;84.48
84841;BME280;75088;53.114;18.040;2024-02-15T01:44:21;101555.55;;;6.54;84.45
84841;BME280;75088;53.114;18.040;2024-02-15T01:45:30;101553.79;;;6.54;84.20
84841;BME280;75088;53.114;18.040;2024-02-15T01:46:37;101554.15;;;6.55;84.23
84841;BME280;75088;53.114;18.040;2024-02-15T01:47:45;101552.40;;;6.55;84.51
84841;BME280;75088;53.114;18.040;2024-02-15T01:48:52;101551.70;;;6.56;84.42
84841;BME280;75088;53.114;18.040;2024-02-15T01:49:59;101551.70;;;6.56;84.36
84841;BME280;75088;53.114;18.040;2024-02-15T01:51:07;101549.58;;;6.57;84.43
84841;BME280;75088;53.114;18.040;2024-02-15T01:52:17;101552.40;;;6.57;84.63
84841;BME280;75088;53.114;18.040;2024-02-15T01:53:24;101549.41;;;6.57;84.23
84841;BME280;75088;53.114;18.040;2024-02-15T01:54:33;101550.81;;;6.57;84.38
84841;BME280;75088;53.114;18.040;2024-02-15T01:55:41;101553.29;;;6.58;84.89
84841;BME280;75088;53.114;18.040;2024-02-15T01:56:49;101551.19;;;6.58;84.57
84841;BME280;75088;53.114;18.040;2024-02-15T01:57:56;101548.55;;;6.59;84.48
84841;BME280;75088;53.114;18.040;2024-02-15T01:59:03;101545.72;;;6.59;84.69
84841;BME280;75088;53.114;18.040;2024-02-15T02:00:14;101550.85;;;6.59;84.91
84841;BME280;75088;53.114;18.040;2024-02-15T02:01:23;101547.86;;;6.60;84.67
84841;BME280;75088;53.114;18.040;2024-02-15T02:02:32;101549.64;;;6.60;84.76
84841;BME280;75088;53.114;18.040;2024-02-15T02:03:41;101546.83;;;6.61;84.63
84841;BME280;75088;53.114;18.040;2024-02-15T02:04:48;101545.60;;;6.61;84.64
84841;BME280;75088;53.114;18.040;2024-02-15T02:05:57;101545.63;;;6.63;84.55
84841;BME280;75088;53.114;18.040;2024-02-15T02:07:05;101542.11;;;6.63;84.45
84841;BME280;75088;53.114;18.040;2024-02-15T02:08:13;101542.30;;;6.64;84.46
84841;BME280;75088;53.114;18.040;2024-02-15T02:09:20;101541.95;;;6.65;84.30
84841;BME280;75088;53.114;18.040;2024-02-15T02:10:27;101544.81;;;6.66;84.33
84841;BME280;75088;53.114;18.040;2024-02-15T02:11:38;101543.58;;;6.66;84.22
84841;BME280;75088;53.114;18.040;2024-02-15T02:12:46;101543.59;;;6.67;84.47
84841;BME280;75088;53.114;18.040;2024-02-15T02:13:53;101541.13;;;6.67;84.40
84841;BME280;75088;53.114;18.040;2024-02-15T02:15:00;101541.31;;;6.68;84.46
84841;BME280;75088;53.114;18.040;2024-02-15T02:16:25;101542.55;;;6.68;84.54
84841;BME280;75088;53.114;18.040;2024-02-15T02:17:33;101537.61;;;6.68;84.82
84841;BME280;75088;53.114;18.040;2024-02-15T02:18:41;101544.17;;;6.69;84.59
84841;BME280;75088;53.114;18.040;2024-02-15T02:19:49;101543.65;;;6.70;84.61
84841;BME280;75088;53.114;18.040;2024-02-15T02:20:56;101539.96;;;6.71;84.59
84841;BME280;75088;53.114;18.040;2024-02-15T02:22:03;101540.85;;;6.71;84.68
84841;BME280;75088;53.114;18.040;2024-02-15T02:23:14;101539.80;;;6.72;84.15
84841;BME280;75088;53.114;18.040;2024-02-15T02:24:24;101542.12;;;6.73;84.59
84841;BME280;75088;53.114;18.040;2024-02-15T02:25:31;101543.73;;;6.74;84.54
84841;BME280;75088;53.114;18.040;2024-02-15T02:26:40;101543.55;;;6.74;84.27
84841;BME280;75088;53.114;18.040;2024-02-15T02:27:48;101538.44;;;6.74;84.33
84841;BME280;75088;53.114;18.040;2024-02-15T02:28:56;101538.27;;;6.75;84.32
84841;BME280;75088;53.114;18.040;2024-02-15T02:30:12;101537.92;;;6.75;84.41
84841;BME280;75088;53.114;18.040;2024-02-15T02:31:20;101538.27;;;6.75;84.68
84841;BME280;75088;53.114;18.040;2024-02-15T02:32:28;101532.99;;;6.76;84.51
84841;BME280;75088;53.114;18.040;2024-02-15T02:33:35;101536.36;;;6.77;84.16
84841;BME280;75088;53.114;18.040;2024-02-15T02:34:42;101534.60;;;6.77;84.52
84841;BME280;75088;53.114;18.040;2024-02-15T02:35:50;101533.90;;;6.77;84.12
84841;BME280;75088;53.114;18.040;2024-02-15T02:36:57;101534.45;;;6.78;84.37
84841;BME280;75088;53.114;18.040;2024-02-15T02:38:04;101532.69;;;6.79;84.13
84841;BME280;75088;53.114;18.040;2024-02-15T02:39:12;101530.77;;;6.80;84.60
84841;BME280;75088;53.114;18.040;2024-02-15T02:40:19;101533.77;;;6.80;84.90
84841;BME280;75088;53.114;18.040;2024-02-15T02:41:26;101531.48;;;6.81;84.39
84841;BME280;75088;53.114;18.040;2024-02-15T02:42:34;101534.34;;;6.82;84.87
84841;BME280;75088;53.114;18.040;2024-02-15T02:43:42;101530.45;;;6.82;84.79
84841;BME280;75088;53.114;18.040;2024-02-15T02:44:49;101526.77;;;6.83;84.74
84841;BME280;75088;53.114;18.040;2024-02-15T02:45:56;101526.06;;;6.83;84.90
84841;BME280;75088;53.114;18.040;2024-02-15T02:47:03;101529.23;;;6.84;84.94
84841;BME280;75088;53.114;18.040;2024-02-15T02:48:10;101525.88;;;6.84;84.70
84841;BME280;75088;53.114;18.040;2024-02-15T02:49:17;101527.30;;;6.85;84.59
84841;BME280;75088;53.114;18.040;2024-02-15T02:50:24;101523.43;;;6.86;84.66
84841;BME280;75088;53.114;18.040;2024-02-15T02:51:32;101523.42;;;6.86;84.81
84841;BME280;75088;53.114;18.040;2024-02-15T02:52:39;101526.98;;;6.87;84.80
84841;BME280;75088;53.114;18.040;2024-02-15T02:53:46;101531.24;;;6.88;84.65
84841;BME280;75088;53.114;18.040;2024-02-15T02:54:53;101531.44;;;6.89;84.36
84841;BME280;75088;53.114;18.040;2024-02-15T02:56:01;101530.04;;;6.90;84.63
84841;BME280;75088;53.114;18.040;2024-02-15T02:57:09;101528.09;;;6.90;84.66
84841;BME280;75088;53.114;18.040;2024-02-15T02:58:16;101529.35;;;6.91;84.63
84841;BME280;75088;53.114;18.040;2024-02-15T02:59:24;101527.95;;;6.91;84.46
84841;BME280;75088;53.114;18.040;2024-02-15T03:00:31;101528.67;;;6.92;84.48
84841;BME280;75088;53.114;18.040;2024-02-15T03:01:38;101526.38;;;6.93;84.79
84841;BME280;75088;53.114;18.040;2024-02-15T03:02:47;101527.29;;;6.93;84.51
84841;BME280;75088;53.114;18.040;2024-02-15T03:03:54;101528.02;;;6.95;84.55
84841;BME280;75088;53.114;18.040;2024-02-15T03:05:03;101528.38;;;6.95;84.86
84841;BME280;75088;53.114;18.040;2024-02-15T03:06:10;101524.83;;;6.95;84.88
84841;BME280;75088;53.114;18.040;2024-02-15T03:07:17;101526.44;;;6.96;85.07
84841;BME280;75088;53.114;18.040;2024-02-15T03:08:24;101528.05;;;6.97;84.80
84841;BME280;75088;53.114;18.040;2024-02-15T03:09:31;101523.80;;;6.97;85.11
84841;BME280;75088;53.114;18.040;2024-02-15T03:10:39;101526.64;;;6.97;84.63
84841;BME280;75088;53.114;18.040;2024-02-15T03:11:47;101523.80;;;6.97;84.71
84841;BME280;75088;53.114;18.040;2024-02-15T03:12:55;101523.27;;;6.97;84.92
84841;BME280;75088;53.114;18.040;2024-02-15T03:14:02;101526.83;;;6.98;84.98
84841;BME280;75088;53.114;18.040;2024-02-15T03:15:12;101524.88;;;6.98;84.67
84841;BME280;75088;53.114;18.040;2024-02-15T03:16:23;101526.48;;;6.98;85.03
84841;BME280;75088;53.114;18.040;2024-02-15T03:17:31;101526.14;;;6.99;84.81
84841;BME280;75088;53.114;18.040;2024-02-15T03:18:38;101525.98;;;7.00;85.12
84841;BME280;75088;53.114;18.040;2024-02-15T03:19:47;101527.41;;;7.01;85.22
84841;BME280;75088;53.114;18.040;2024-02-15T03:20:54;101528.82;;;7.00;84.76
84841;BME280;75088;53.114;18.040;2024-02-15T03:22:02;101525.82;;;7.01;84.63
84841;BME280;75088;53.114;18.040;2024-02-15T03:23:09;101528.66;;;7.01;84.72
84841;BME280;75088;53.114;18.040;2024-02-15T03:24:16;101529.54;;;7.02;84.60
84841;BME280;75088;53.114;18.040;2024-02-15T03:25:24;101531.49;;;7.02;84.82
84841;BME280;75088;53.114;18.040;2024-02-15T03:26:34;101530.61;;;7.02;84.54
84841;BME280;75088;53.114;18.040;2024-02-15T03:27:43;101533.06;;;7.01;84.83
84841;BME280;75088;53.114;18.040;2024-02-15T03:28:51;101536.63;;;7.02;84.53
84841;BME280;75088;53.114;18.040;2024-02-15T03:29:58;101535.05;;;7.02;84.88
84841;BME280;75088;53.114;18.040;2024-02-15T03:31:06;101534.00;;;7.04;84.58
84841;BME280;75088;53.114;18.040;2024-02-15T03:32:13;101532.06;;;7.04;84.53
84841;BME280;75088;53.114;18.040;2024-02-15T03:33:20;101537.20;;;7.05;84.88
84841;BME280;75088;53.114;18.040;2024-02-15T03:34:32;101534.05;;;7.07;84.56
84841;BME280;75088;53.114;18.040;2024-02-15T03:35:39;101529.98;;;7.06;84.77
84841;BME280;75088;53.114;18.040;2024-02-15T03:36:46;101533.70;;;7.07;84.88
84841;BME280;75088;53.114;18.040;2024-02-15T03:37:53;101533.02;;;7.08;84.80
84841;BME280;75088;53.114;18.040;2024-02-15T03:39:01;101537.08;;;7.08;84.77
84841;BME280;75088;53.114;18.040;2024-02-15T03:40:10;101536.54;;;7.07;84.68
84841;BME280;75088;53.114;18.040;2024-02-15T03:41:17;101532.66;;;7.08;84.56
84841;BME280;75088;53.114;18.040;2024-02-15T03:42:24;101537.44;;;7.08;85.03
84841;BME280;75088;53.114;18.040;2024-02-15T03:43:31;101539.92;;;7.09;84.78
84841;BME280;75088;53.114;18.040;2024-02-15T03:44:39;101536.59;;;7.10;84.89
84841;BME280;75088;53.114;18.040;2024-02-15T03:45:47;101541.18;;;7.11;84.73
84841;BME280;75088;53.114;18.040;2024-02-15T03:46:54;101535.17;;;7.10;85.08
84841;BME280;75088;53.114;18.040;2024-02-15T03:48:01;101537.11;;;7.11;85.02
84841;BME280;75088;53.114;18.040;2024-02-15T03:49:11;101535.54;;;7.11;85.14
84841;BME280;75088;53.114;18.040;2024-02-15T03:50:18;101533.05;;;7.11;84.98
84841;BME280;75088;53.114;18.040;2024-02-15T03:51:27;101532.36;;;7.13;84.80
84841;BME280;75088;53.114;18.040;2024-02-15T03:52:35;101533.77;;;7.12;84.94
84841;BME280;75088;53.114;18.040;2024-02-15T03:53:42;101532.02;;;7.14;84.81
84841;BME280;75088;53.114;18.040;2024-02-15T03:54:49;101529.54;;;7.13;84.88
84841;BME280;75088;53.114;18.040;2024-02-15T03:55:56;101528.14;;;7.14;84.80
84841;BME280;75088;53.114;18.040;2024-02-15T03:57:04;101527.08;;;7.14;84.83
84841;BME280;75088;53.114;18.040;2024-02-15T03:58:12;101529.02;;;7.14;85.01
84841;BME280;75088;53.114;18.040;2024-02-15T03:59:21;101529.18;;;7.13;85.14
84841;BME280;75088;53.114;18.040;2024-02-15T04:00:32;101532.89;;;7.13;85.07
84841;BME280;75088;53.114;18.040;2024-02-15T04:01:39;101533.59;;;7.13;84.89
84841;BME280;75088;53.114;18.040;2024-02-15T04:02:47;101531.84;;;7.13;84.79
84841;BME280;75088;53.114;18.040;2024-02-15T04:03:55;101531.13;;;7.13;85.00
84841;BME280;75088;53.114;18.040;2024-02-15T04:05:02;101528.30;;;7.13;84.98
84841;BME280;75088;53.114;18.040;2024-02-15T04:06:10;101530.07;;;7.13;84.66
84841;BME280;75088;53.114;18.040;2024-02-15T04:07:18;101527.42;;;7.13;84.70
84841;BME280;75088;53.114;18.040;2024-02-15T04:08:25;101531.30;;;7.13;84.84
84841;BME280;75088;53.114;18.040;2024-02-15T04:09:32;101528.31;;;7.14;84.67
84841;BME280;75088;53.114;18.040;2024-02-15T04:10:42;101530.63;;;7.15;84.85
84841;BME280;75088;53.114;18.040;2024-02-15T04:11:51;101532.05;;;7.15;84.95
84841;BME280;75088;53.114;18.040;2024-02-15T04:12:59;101528.34;;;7.16;84.97
84841;BME280;75088;53.114;18.040;2024-02-15T04:14:06;101528.17;;;7.16;84.92
84841;BME280;75088;53.114;18.040;2024-02-15T04:15:13;101529.95;;;7.17;85.02
84841;BME280;75088;53.114;18.040;2024-02-15T04:16:22;101532.60;;;7.17;85.03
84841;BME280;75088;53.114;18.040;2024-02-15T04:17:31;101531.55;;;7.17;84.79
84841;BME280;75088;53.114;18.040;2024-02-15T04:18:40;101529.42;;;7.17;85.18
84841;BME280;75088;53.114;18.040;2024-02-15T04:19:48;101531.91;;;7.18;85.19
84841;BME280;75088;53.114;18.040;2024-02-15T04:20:56;101534.92;;;7.18;85.30
84841;BME280;75088;53.114;18.040;2024-02-15T04:22:03;101537.41;;;7.19;85.19
84841;BME280;75088;53.114;18.040;2024-02-15T04:23:13;101536.17;;;7.19;85.29
84841;BME280;75088;53.114;18.040;2024-02-15T04:24:21;101535.83;;;7.19;85.49
84841;BME280;75088;53.114;18.040;2024-02-15T04:25:29;101539.20;;;7.20;85.02
84841;BME280;75088;53.114;18.040;2024-02-15T04:26:36;101539.91;;;7.21;85.24
84841;BME280;75088;53.114;18.040;2024-02-15T04:27:44;101543.28;;;7.21;85.60
84841;BME280;75088;53.114;18.040;2024-02-15T04:28:52;101541.52;;;7.21;84.92
84841;BME280;75088;53.114;18.040;2024-02-15T04:29:59;101539.77;;;7.22;85.02
84841;BME280;75088;53.114;18.040;2024-02-15T04:31:08;101542.24;;;7.22;85.47
84841;BME280;75088;53.114;18.040;2024-02-15T04:32:15;101539.77;;;7.22;85.15
84841;BME280;75088;53.114;18.040;2024-02-15T04:33:25;101537.13;;;7.23;85.22
84841;BME280;75088;53.114;18.040;2024-02-15T04:34:32;101536.96;;;7.23;85.25
84841;BME280;75088;53.114;18.040;2024-02-15T04:35:40;101536.40;;;7.21;85.37
84841;BME280;75088;53.114;18.040;2024-02-15T04:36:48;101542.63;;;7.24;84.99
84841;BME280;75088;53.114;18.040;2024-02-15T04:37:56;101544.22;;;7.24;85.35
84841;BME280;75088;53.114;18.040;2024-02-15T04:39:03;101542.98;;;7.25;85.17
84841;BME280;75088;53.114;18.040;2024-02-15T04:40:11;101546.00;;;7.25;85.29
84841;BME280;75088;53.114;18.040;2024-02-15T04:41:21;101544.94;;;7.25;85.32
84841;BME280;75088;53.114;18.040;2024-02-15T04:42:29;101548.84;;;7.26;85.23
84841;BME280;75088;53.114;18.040;2024-02-15T04:43:39;101546.73;;;7.26;85.08
84841;BME280;75088;53.114;18.040;2024-02-15T04:44:46;101548.31;;;7.26;85.40
84841;BME280;75088;53.114;18.040;2024-02-15T04:45:53;101545.32;;;7.27;85.02
84841;BME280;75088;53.114;18.040;2024-02-15T04:47:01;101548.15;;;7.27;85.10
84841;BME280;75088;53.114;18.040;2024-02-15T04:48:10;101548.15;;;7.27;85.52
84841;BME280;75088;53.114;18.040;2024-02-15T04:49:19;101548.00;;;7.28;85.38
84841;BME280;75088;53.114;18.040;2024-02-15T04:50:27;101546.76;;;7.28;85.26
84841;BME280;75088;53.114;18.040;2024-02-15T04:51:33;101543.92;;;7.28;85.04
84841;BME280;75088;53.114;18.040;2024-02-15T04:52:41;101544.82;;;7.29;85.11
84841;BME280;75088;53.114;18.040;2024-02-15T04:53:51;101542.34;;;7.29;85.05
84841;BME280;75088;53.114;18.040;2024-02-15T04:54:58;101549.44;;;7.30;85.23
84841;BME280;75088;53.114;18.040;2024-02-15T04:56:06;101544.85;;;7.30;85.31
84841;BME280;75088;53.114;18.040;2024-02-15T04:57:19;101546.45;;;7.31;85.20
84841;BME280;75088;53.114;18.040;2024-02-15T04:58:28;101542.38;;;7.30;85.08
84841;BME280;75088;53.114;18.040;2024-02-15T04:59:35;101545.23;;;7.32;84.97
84841;BME280;75088;53.114;18.040;2024-02-15T05:00:42;101548.60;;;7.33;85.16
84841;BME280;75088;53.114;18.040;2024-02-15T05:01:49;101544.90;;;7.33;85.03
84841;BME280;75088;53.114;18.040;2024-02-15T05:02:57;101542.43;;;7.33;85.15
84841;BME280;75088;53.114;18.040;2024-02-15T05:04:04;101543.48;;;7.33;84.94
84841;BME280;75088;53.114;18.040;2024-02-15T05:05:12;101543.83;;;7.32;85.42
84841;BME280;75088;53.114;18.040;2024-02-15T05:06:19;101546.13;;;7.32;85.23
84841;BME280;75088;53.114;18.040;2024-02-15T05:07:26;101545.59;;;7.32;84.75
84841;BME280;75088;53.114;18.040;2024-02-15T05:08:33;101547.16;;;7.30;85.19
84841;BME280;75088;53.114;18.040;2024-02-15T05:09:42;101545.38;;;7.30;85.30
84841;BME280;75088;53.114;18.040;2024-02-15T05:10:49;101544.50;;;7.30;85.26
84841;BME280;75088;53.114;18.040;2024-02-15T05:12:02;101548.21;;;7.30;85.16
84841;BME280;75088;53.114;18.040;2024-02-15T05:13:09;101547.33;;;7.30;85.56
84841;BME280;75088;53.114;18.040;2024-02-15T05:14:20;101545.91;;;7.30;85.03
84841;BME280;75088;53.114;18.040;2024-02-15T05:15:28;101543.98;;;7.30;85.26
84841;BME280;75088;53.114;18.040;2024-02-15T05:16:36;101540.25;;;7.30;85.22
84841;BME280;75088;53.114;18.040;2024-02-15T05:17:47;101537.23;;;7.30;85.27
84841;BME280;75088;53.114;18.040;2024-02-15T05:18:55;101537.23;;;7.30;85.39
84841;BME280;75088;53.114;18.040;2024-02-15T05:20:02;101533.17;;;7.29;85.57
84841;BME280;75088;53.114;18.040;2024-02-15T05:21:16;101533.35;;;7.29;85.22
84841;BME280;75088;53.114;18.040;2024-02-15T05:22:23;101531.76;;;7.29;85.31
84841;BME280;75088;53.114;18.040;2024-02-15T05:23:30;101533.52;;;7.29;85.36
84841;BME280;75088;53.114;18.040;2024-02-15T05:24:37;101533.16;;;7.29;85.42
84841;BME280;75088;53.114;18.040;2024-02-15T05:25:45;101533.15;;;7.28;85.08
84841;BME280;75088;53.114;18.040;2024-02-15T05:26:52;101532.80;;;7.29;85.30
84841;BME280;75088;53.114;18.040;2024-02-15T05:28:00;101532.63;;;7.29;85.31
84841;BME280;75088;53.114;18.040;2024-02-15T05:29:09;101536.16;;;7.28;85.67
84841;BME280;75088;53.114;18.040;2024-02-15T05:30:17;101539.35;;;7.29;85.40
84841;BME280;75088;53.114;18.040;2024-02-15T05:31:24;101537.94;;;7.29;85.32
84841;BME280;75088;53.114;18.040;2024-02-15T05:32:32;101538.29;;;7.29;85.65
84841;BME280;75088;53.114;18.040;2024-02-15T05:33:48;101543.07;;;7.29;85.06
84841;BME280;75088;53.114;18.040;2024-02-15T05:34:56;101541.64;;;7.28;85.44
84841;BME280;75088;53.114;18.040;2024-02-15T05:36:03;101544.30;;;7.29;85.13
84841;BME280;75088;53.114;18.040;2024-02-15T05:37:10;101543.42;;;7.29;85.22
84841;BME280;75088;53.114;18.040;2024-02-15T05:38:17;101542.90;;;7.29;85.18
84841;BME280;75088;53.114;18.040;2024-02-15T05:39:25;101543.95;;;7.29;85.71
84841;BME280;75088;53.114;18.040;2024-02-15T05:40:32;101542.19;;;7.30;85.30
84841;BME280;75088;53.114;18.040;2024-02-15T05:41:39;101543.80;;;7.31;85.20
84841;BME280;75088;53.114;18.040;2024-02-15T05:42:46;101539.38;;;7.31;85.29
84841;BME280;75088;53.114;18.040;2024-02-15T05:43:53;101537.27;;;7.31;85.32
84841;BME280;75088;53.114;18.040;2024-02-15T05:45:28;101539.40;;;7.32;85.18
84841;BME280;75088;53.114;18.040;2024-02-15T05:46:38;101537.61;;;7.31;85.22
84841;BME280;75088;53.114;18.040;2024-02-15T05:47:45;101542.04;;;7.31;85.56
84841;BME280;75088;53.114;18.040;2024-02-15T05:48:52;101539.91;;;7.31;85.12
84841;BME280;75088;53.114;18.040;2024-02-15T05:49:59;101540.27;;;7.32;85.15
84841;BME280;75088;53.114;18.040;2024-02-15T05:51:11;101541.17;;;7.32;85.00
84841;BME280;75088;53.114;18.040;2024-02-15T05:52:18;101539.92;;;7.31;85.23
84841;BME280;75088;53.114;18.040;2024-02-15T05:53:25;101539.04;;;7.32;85.38
84841;BME280;75088;53.114;18.040;2024-02-15T05:54:32;101542.41;;;7.32;85.13
84841;BME280;75088;53.114;18.040;2024-02-15T05:55:39;101544.38;;;7.33;85.25